createdAt,value
2018-09-14T00:03:57.975Z,55.09
2018-09-14T00:09:01.438Z,55.26
2018-09-14T00:14:04.879Z,54.99
2018-09-14T00:19:08.457Z,55.10
2018-09-14T00:24:11.925Z,55.26
2018-09-14T00:29:15.404Z,55.58
2018-09-14T00:34:18.852Z,55.37
2018-09-14T00:39:22.313Z,55.23
2018-09-14T00:44:25.764Z,55.61
2018-09-14T00:49:29.358Z,55.65
2018-09-14T00:54:32.826Z,55.56
2018-09-14T00:59:36.280Z,55.46
2018-09-14T01:04:39.747Z,55.21
2018-09-14T01:09:43.193Z,55.98
2018-09-14T01:14:46.652Z,55.56
2018-09-14T01:19:50.106Z,56.10
2018-09-14T01:24:53.564Z,55.70
2018-09-14T01:29:57.020Z,55.95
2018-09-14T01:35:00.493Z,55.88
2018-09-14T01:40:04.671Z,55.86
2018-09-14T01:45:08.136Z,56.08
2018-09-14T01:50:11.663Z,56.37
2018-09-14T01:55:15.084Z,56.20
2018-09-14T02:00:18.732Z,56.43
2018-09-14T02:05:22.224Z,56.20
2018-09-14T02:10:25.706Z,56.82
2018-09-14T02:15:29.175Z,56.42
2018-09-14T02:20:32.644Z,56.36
2018-09-14T02:25:36.119Z,56.80
2018-09-14T02:30:39.582Z,56.60
2018-09-14T02:35:43.043Z,56.74
2018-09-14T02:40:46.536Z,57.06
2018-09-14T02:45:50.186Z,56.46
2018-09-14T02:50:53.640Z,57.08
2018-09-14T02:55:57.103Z,56.73
2018-09-14T03:01:00.540Z,56.66
2018-09-14T03:06:03.999Z,56.72
2018-09-14T03:11:07.480Z,56.60
2018-09-14T03:16:10.946Z,56.41
2018-09-14T03:21:14.515Z,56.15
2018-09-14T03:26:17.952Z,56.48
2018-09-14T03:31:21.437Z,56.51
2018-09-14T03:36:25.157Z,56.25
2018-09-14T03:41:28.620Z,56.07
2018-09-14T03:46:32.096Z,56.75
2018-09-14T03:51:35.558Z,56.78
2018-09-14T03:56:39.029Z,56.50
2018-09-14T04:01:42.499Z,56.64
2018-09-14T04:06:45.936Z,56.32
2018-09-14T04:11:49.404Z,56.85
2018-09-14T04:16:52.843Z,56.52
2018-09-14T04:21:56.295Z,56.78
2018-09-14T04:26:59.727Z,56.55
2018-09-14T04:32:03.162Z,56.68
2018-09-14T04:37:06.613Z,56.47
2018-09-14T04:42:10.056Z,56.69
2018-09-14T04:47:13.484Z,56.76
2018-09-14T04:52:16.925Z,56.96
2018-09-14T04:57:20.449Z,57.59
2018-09-14T05:02:23.891Z,57.46
2018-09-14T05:07:27.339Z,57.89
2018-09-14T05:12:30.822Z,57.67
2018-09-14T05:17:34.275Z,58.10
2018-09-14T05:22:37.759Z,57.65
2018-09-14T05:27:41.202Z,57.85
2018-09-14T05:32:44.650Z,58.71
2018-09-14T05:37:48.111Z,58.53
2018-09-14T05:42:51.563Z,58.04
2018-09-14T05:47:54.999Z,57.95
2018-09-14T05:52:58.474Z,58.25
2018-09-14T05:58:01.922Z,58.43
2018-09-14T06:03:05.385Z,57.95
2018-09-14T06:08:08.827Z,58.06
2018-09-14T06:13:12.484Z,58.32
2018-09-14T06:18:15.923Z,58.27
2018-09-14T06:23:19.382Z,58.48
2018-09-14T06:28:22.815Z,58.17
2018-09-14T06:33:26.296Z,58.08
2018-09-14T06:38:29.760Z,58.13
2018-09-14T06:43:33.217Z,57.96
2018-09-14T06:48:36.674Z,58.40
2018-09-14T06:53:40.150Z,58.29
2018-09-14T06:58:43.596Z,58.32
2018-09-14T07:03:47.223Z,62.94
2018-09-14T07:08:50.683Z,63.80
2018-09-14T07:13:54.157Z,63.55
2018-09-14T07:18:57.670Z,63.90
2018-09-14T07:24:01.120Z,62.89
2018-09-14T07:29:04.653Z,63.33
2018-09-14T07:34:08.072Z,63.21
2018-09-14T07:39:12.361Z,64.09
2018-09-14T07:44:15.809Z,64.27
2018-09-14T07:49:19.312Z,64.97
2018-09-14T07:54:22.876Z,65.02
2018-09-14T07:59:26.328Z,65.71
2018-09-14T08:04:29.924Z,64.61
2018-09-14T08:09:33.391Z,65.87
2018-09-14T08:14:36.877Z,66.09
2018-09-14T08:19:40.326Z,65.57
2018-09-14T08:24:43.807Z,65.67
2018-09-14T08:29:47.523Z,66.80
2018-09-14T08:34:50.976Z,66.87
2018-09-14T08:39:54.435Z,67.13
2018-09-14T08:44:57.913Z,67.23
2018-09-14T08:50:01.389Z,67.73
2018-09-14T08:55:05.122Z,68.20
2018-09-14T09:00:08.601Z,67.65
2018-09-14T09:05:12.050Z,68.70
2018-09-14T09:10:15.539Z,69.02
2018-09-14T09:15:18.982Z,68.91
2018-09-14T09:20:22.451Z,68.79
2018-09-14T09:25:25.894Z,67.84
2018-09-14T09:30:29.363Z,67.53
2018-09-14T09:35:32.816Z,64.84
2018-09-14T09:40:36.282Z,63.56
2018-09-14T09:45:39.746Z,62.82
2018-09-14T09:50:43.203Z,62.55
2018-09-14T09:55:46.655Z,62.64
2018-09-14T10:01:52.940Z,62.26
2018-09-14T10:06:56.575Z,62.06
2018-09-14T10:12:00.032Z,62.11
2018-09-14T10:17:03.507Z,61.17
2018-09-14T10:22:06.979Z,61.57
2018-09-14T10:27:10.449Z,61.68
2018-09-14T10:32:13.910Z,61.67
2018-09-14T10:37:17.363Z,61.70
2018-09-14T10:42:20.821Z,61.67
2018-09-14T10:47:24.278Z,60.86
2018-09-14T10:52:27.721Z,60.79
2018-09-14T10:57:31.175Z,60.84
2018-09-14T11:02:34.619Z,60.93
2018-09-14T11:07:38.047Z,62.30
2018-09-14T11:12:41.682Z,61.43
2018-09-14T11:17:45.127Z,61.39
2018-09-14T11:22:48.626Z,61.34
2018-09-14T11:27:52.160Z,60.77
2018-09-14T11:32:55.614Z,60.89
2018-09-14T11:37:59.151Z,60.66
2018-09-14T11:43:02.537Z,60.72
2018-09-14T11:48:06.108Z,60.69
2018-09-14T11:53:09.548Z,60.38
2018-09-14T11:58:13.001Z,60.42
2018-09-14T12:03:16.462Z,59.90
2018-09-14T12:08:21.338Z,59.95
2018-09-14T12:13:25.006Z,59.57
2018-09-14T12:18:28.490Z,59.69
2018-09-14T12:23:31.963Z,59.92
2018-09-14T12:28:35.430Z,59.98
2018-09-14T12:33:38.862Z,59.28
2018-09-14T12:38:42.383Z,58.93
2018-09-14T12:43:45.895Z,58.72
2018-09-14T12:48:49.591Z,58.60
2018-09-14T12:53:53.119Z,58.60
2018-09-14T12:58:57.364Z,58.15
2018-09-14T13:04:00.850Z,58.01
2018-09-14T13:09:06.842Z,57.49
2018-09-14T13:14:10.323Z,58.58
2018-09-14T13:19:13.939Z,57.75
2018-09-14T13:24:17.558Z,57.78
2018-09-14T13:29:21.015Z,56.52
2018-09-14T13:34:24.590Z,56.89
2018-09-14T13:39:28.448Z,56.45
2018-09-14T13:44:32.579Z,56.81
2018-09-14T13:49:36.091Z,56.07
2018-09-14T13:54:39.558Z,56.48
2018-09-14T13:59:43.080Z,56.09
2018-09-14T14:04:46.594Z,56.17
2018-09-14T14:09:50.285Z,56.92
2018-09-14T14:14:53.707Z,55.74
2018-09-14T14:19:57.187Z,55.73
2018-09-14T14:25:00.670Z,55.29
2018-09-14T14:30:04.282Z,55.26
2018-09-14T14:35:07.787Z,55.31
2018-09-14T14:40:11.270Z,54.89
2018-09-14T14:45:15.207Z,54.94
2018-09-14T14:50:18.698Z,55.05
2018-09-14T14:55:22.159Z,54.70
2018-09-14T15:00:25.655Z,54.46
2018-09-14T15:05:29.150Z,54.22
2018-09-14T15:10:32.680Z,54.06
2018-09-14T15:15:36.157Z,54.42
2018-09-14T15:20:39.671Z,54.24
2018-09-14T15:25:43.142Z,53.95
2018-09-14T15:30:46.606Z,53.87
2018-09-14T15:35:50.141Z,54.26
2018-09-14T15:40:53.626Z,54.61
2018-09-14T15:45:57.091Z,53.94
2018-09-14T15:51:00.557Z,54.28
2018-09-14T15:56:04.051Z,54.46
2018-09-14T16:01:07.619Z,54.72
2018-09-14T16:06:11.884Z,54.72
2018-09-14T16:11:15.445Z,54.37
2018-09-14T16:16:18.879Z,54.55
2018-09-14T16:21:22.472Z,54.85
2018-09-14T16:26:25.950Z,54.55
2018-09-14T16:31:29.448Z,54.93
2018-09-14T16:36:32.894Z,55.18
2018-09-14T16:41:36.371Z,55.14
2018-09-14T16:46:39.877Z,55.71
2018-09-14T16:51:43.455Z,55.04
2018-09-14T16:56:46.848Z,54.54
2018-09-14T17:01:50.313Z,54.96
2018-09-14T17:12:33.739Z,54.85
2018-09-14T17:17:37.446Z,55.16
2018-09-14T17:22:40.942Z,55.22
2018-09-14T17:27:44.404Z,55.35
2018-09-14T17:32:47.875Z,55.43
2018-09-14T17:37:51.373Z,54.81
2018-09-14T17:42:54.880Z,54.88
2018-09-14T17:47:58.344Z,55.14
2018-09-14T17:53:01.813Z,54.29
2018-09-14T17:58:05.332Z,54.85
2018-09-14T18:03:08.793Z,54.42
2018-09-14T18:08:12.327Z,55.04
2018-09-14T18:13:15.807Z,55.26
2018-09-14T18:18:19.270Z,54.94
2018-09-14T18:23:22.753Z,54.80
2018-09-14T18:28:26.251Z,54.91
2018-09-14T18:33:29.712Z,55.02
2018-09-14T18:38:33.197Z,55.17
2018-09-14T18:43:36.655Z,54.98
2018-09-14T18:48:40.127Z,54.98
2018-09-14T18:53:43.626Z,55.21
2018-09-14T18:58:47.127Z,55.23
2018-09-14T19:03:50.592Z,54.47
2018-09-14T19:08:54.117Z,54.92
2018-09-14T19:13:57.605Z,55.12
2018-09-14T19:19:01.179Z,55.03
2018-09-14T19:24:04.751Z,54.96
2018-09-14T19:29:08.211Z,54.64
2018-09-14T19:34:11.697Z,54.99
2018-09-14T19:39:15.160Z,54.94
2018-09-14T19:44:18.621Z,55.21
2018-09-14T19:49:22.066Z,54.94
2018-09-14T19:54:25.619Z,54.71
2018-09-14T19:59:29.189Z,55.17
2018-09-14T20:04:32.689Z,54.58
2018-09-14T20:09:36.199Z,54.79
2018-09-14T20:14:39.772Z,54.85
2018-09-14T20:19:43.346Z,54.93
2018-09-14T20:24:46.793Z,54.84
2018-09-14T20:29:50.346Z,54.80
2018-09-14T20:34:53.790Z,54.73
2018-09-14T20:39:57.230Z,54.68
2018-09-14T20:45:00.681Z,54.57
2018-09-14T20:50:04.315Z,54.38
2018-09-14T20:55:07.759Z,54.74
2018-09-14T21:00:11.256Z,54.32
2018-09-14T21:05:14.727Z,54.63
2018-09-14T21:10:18.235Z,54.71
2018-09-14T21:15:21.675Z,54.17
2018-09-14T21:20:25.131Z,53.94
2018-09-14T21:25:28.579Z,54.58
2018-09-14T21:30:32.036Z,54.17
2018-09-14T21:35:35.475Z,54.50
2018-09-14T21:40:39.029Z,54.58
2018-09-14T21:45:42.508Z,54.41
2018-09-14T21:50:45.978Z,54.20
2018-09-14T21:55:49.438Z,54.06
2018-09-14T22:00:58.088Z,54.69
2018-09-14T22:06:01.563Z,54.22
2018-09-14T22:11:04.995Z,54.59
2018-09-14T22:16:08.555Z,54.34
2018-09-14T22:21:12.036Z,54.34
2018-09-14T22:26:15.491Z,54.76
2018-09-14T22:31:18.963Z,54.56
2018-09-14T22:36:22.419Z,54.42
2018-09-14T22:41:25.862Z,54.35
2018-09-14T22:46:29.330Z,54.34
2018-09-14T22:51:32.795Z,54.48
2018-09-14T22:56:36.300Z,54.28
2018-09-14T23:01:39.755Z,54.31
2018-09-14T23:06:43.237Z,54.09
2018-09-14T23:11:46.732Z,54.66
2018-09-14T23:16:50.423Z,54.64
2018-09-14T23:21:53.859Z,54.20
2018-09-14T23:26:57.326Z,54.18
2018-09-14T23:32:00.779Z,54.63
2018-09-14T23:37:04.222Z,54.52
2018-09-14T23:42:07.719Z,54.53
2018-09-14T23:47:11.155Z,54.69
2018-09-14T23:52:14.603Z,54.65
2018-09-14T23:57:18.052Z,54.65
